sensor_id;sensor_type;location;lat;lon;timestamp;P1;durP1;ratioP1;P2;durP2;ratioP2
2760;SDS011;15420;48.636;9.798;2023-01-01T00:01:57;212.77;;;129.30;;
2760;SDS011;15420;48.636;9.798;2023-01-01T00:04:24;316.57;;;180.30;;
2760;SDS011;15420;48.636;9.798;2023-01-01T00:06:50;320.93;;;197.27;;
2760;SDS011;15420;48.636;9.798;2023-01-01T00:09:19;298.93;;;181.73;;
2760;SDS011;15420;48.636;9.798;2023-01-01T00:12:03;284.93;;;169.23;;
2760;SDS011;15420;48.636;9.798;2023-01-01T00:14:30;277.13;;;165.93;;
2760;SDS011;15420;48.636;9.798;2023-01-01T00:16:56;253.43;;;152.23;;
2760;SDS011;15420;48.636;9.798;2023-01-01T00:19:25;242.00;;;141.63;;
2760;SDS011;15420;48.636;9.798;2023-01-01T00:21:51;159.13;;;98.77;;
2760;SDS011;15420;48.636;9.798;2023-01-01T00:24:18;126.30;;;78.63;;
2760;SDS011;15420;48.636;9.798;2023-01-01T00:26:44;121.33;;;68.90;;
2760;SDS011;15420;48.636;9.798;2023-01-01T00:29:10;120.10;;;68.93;;
2760;SDS011;15420;48.636;9.798;2023-01-01T00:31:41;76.23;;;44.50;;
2760;SDS011;15420;48.636;9.798;2023-01-01T00:34:10;62.30;;;38.40;;
2760;SDS011;15420;48.636;9.798;2023-01-01T00:36:41;61.03;;;35.80;;
2760;SDS011;15420;48.636;9.798;2023-01-01T00:39:11;54.67;;;33.17;;
2760;SDS011;15420;48.636;9.798;2023-01-01T00:41:41;57.40;;;34.93;;
2760;SDS011;15420;48.636;9.798;2023-01-01T00:44:07;86.03;;;50.83;;
2760;SDS011;15420;48.636;9.798;2023-01-01T00:46:33;113.93;;;65.57;;
2760;SDS011;15420;48.636;9.798;2023-01-01T00:48:59;149.57;;;87.43;;
2760;SDS011;15420;48.636;9.798;2023-01-01T00:51:34;143.57;;;81.47;;
2760;SDS011;15420;48.636;9.798;2023-01-01T00:54:00;105.23;;;62.13;;
2760;SDS011;15420;48.636;9.798;2023-01-01T00:56:29;102.10;;;60.23;;
2760;SDS011;15420;48.636;9.798;2023-01-01T00:59:01;95.80;;;55.20;;
2760;SDS011;15420;48.636;9.798;2023-01-01T01:01:29;96.90;;;58.03;;
2760;SDS011;15420;48.636;9.798;2023-01-01T01:03:58;102.40;;;59.10;;
2760;SDS011;15420;48.636;9.798;2023-01-01T01:06:26;124.33;;;72.17;;
2760;SDS011;15420;48.636;9.798;2023-01-01T01:08:52;156.40;;;92.13;;
2760;SDS011;15420;48.636;9.798;2023-01-01T01:11:22;144.33;;;83.53;;
2760;SDS011;15420;48.636;9.798;2023-01-01T01:13:51;167.37;;;99.30;;
2760;SDS011;15420;48.636;9.798;2023-01-01T01:16:23;127.00;;;74.70;;
2760;SDS011;15420;48.636;9.798;2023-01-01T01:18:57;113.57;;;67.83;;
2760;SDS011;15420;48.636;9.798;2023-01-01T01:21:28;117.07;;;66.37;;
2760;SDS011;15420;48.636;9.798;2023-01-01T01:24:05;100.93;;;59.67;;
2760;SDS011;15420;48.636;9.798;2023-01-01T01:26:32;82.93;;;49.70;;
2760;SDS011;15420;48.636;9.798;2023-01-01T01:29:00;78.70;;;45.00;;
2760;SDS011;15420;48.636;9.798;2023-01-01T01:31:28;81.73;;;47.87;;
2760;SDS011;15420;48.636;9.798;2023-01-01T01:33:55;86.07;;;47.83;;
2760;SDS011;15420;48.636;9.798;2023-01-01T01:36:24;80.10;;;47.03;;
2760;SDS011;15420;48.636;9.798;2023-01-01T01:38:50;75.63;;;44.73;;
2760;SDS011;15420;48.636;9.798;2023-01-01T01:41:21;69.30;;;42.73;;
2760;SDS011;15420;48.636;9.798;2023-01-01T01:43:53;82.70;;;46.30;;
2760;SDS011;15420;48.636;9.798;2023-01-01T01:46:31;89.00;;;51.40;;
2760;SDS011;15420;48.636;9.798;2023-01-01T01:49:11;81.60;;;49.00;;
2760;SDS011;15420;48.636;9.798;2023-01-01T01:51:45;83.57;;;50.33;;
2760;SDS011;15420;48.636;9.798;2023-01-01T01:54:14;81.90;;;51.80;;
2760;SDS011;15420;48.636;9.798;2023-01-01T01:56:51;90.07;;;52.73;;
2760;SDS011;15420;48.636;9.798;2023-01-01T01:59:21;90.53;;;50.03;;
2760;SDS011;15420;48.636;9.798;2023-01-01T02:01:53;83.30;;;52.30;;
2760;SDS011;15420;48.636;9.798;2023-01-01T02:04:23;90.77;;;50.90;;
2760;SDS011;15420;48.636;9.798;2023-01-01T02:06:54;65.37;;;41.17;;
2760;SDS011;15420;48.636;9.798;2023-01-01T02:09:22;67.40;;;39.60;;
2760;SDS011;15420;48.636;9.798;2023-01-01T02:11:50;64.63;;;38.33;;
2760;SDS011;15420;48.636;9.798;2023-01-01T02:14:20;60.50;;;36.07;;
2760;SDS011;15420;48.636;9.798;2023-01-01T02:16:48;47.90;;;30.33;;
2760;SDS011;15420;48.636;9.798;2023-01-01T02:19:50;39.93;;;24.37;;
2760;SDS011;15420;48.636;9.798;2023-01-01T02:25:55;28.60;;;17.10;;
2760;SDS011;15420;48.636;9.798;2023-01-01T02:31:21;20.47;;;11.07;;
2760;SDS011;15420;48.636;9.798;2023-01-01T02:33:52;18.10;;;10.70;;
2760;SDS011;15420;48.636;9.798;2023-01-01T02:36:22;16.67;;;9.63;;
2760;SDS011;15420;48.636;9.798;2023-01-01T02:38:53;12.00;;;8.17;;
2760;SDS011;15420;48.636;9.798;2023-01-01T02:41:27;12.07;;;7.13;;
2760;SDS011;15420;48.636;9.798;2023-01-01T02:43:59;13.20;;;6.13;;
2760;SDS011;15420;48.636;9.798;2023-01-01T02:46:31;8.77;;;6.00;;
2760;SDS011;15420;48.636;9.798;2023-01-01T02:48:59;10.60;;;6.27;;
2760;SDS011;15420;48.636;9.798;2023-01-01T02:59:24;6.43;;;5.30;;
2760;SDS011;15420;48.636;9.798;2023-01-01T03:13:08;11.27;;;7.83;;
2760;SDS011;15420;48.636;9.798;2023-01-01T03:21:34;7.07;;;5.13;;
2760;SDS011;15420;48.636;9.798;2023-01-01T03:24:25;9.43;;;5.00;;
2760;SDS011;15420;48.636;9.798;2023-01-01T03:27:06;9.77;;;5.00;;
2760;SDS011;15420;48.636;9.798;2023-01-01T03:29:58;6.93;;;4.87;;
2760;SDS011;15420;48.636;9.798;2023-01-01T03:32:45;6.50;;;5.17;;
2760;SDS011;15420;48.636;9.798;2023-01-01T03:35:36;9.90;;;6.03;;
2760;SDS011;15420;48.636;9.798;2023-01-01T03:41:17;9.70;;;5.43;;
2760;SDS011;15420;48.636;9.798;2023-01-01T03:44:06;7.97;;;5.00;;
2760;SDS011;15420;48.636;9.798;2023-01-01T03:46:49;8.60;;;5.17;;
2760;SDS011;15420;48.636;9.798;2023-01-01T03:49:15;6.00;;;5.10;;
2760;SDS011;15420;48.636;9.798;2023-01-01T03:54:45;8.90;;;5.47;;
2760;SDS011;15420;48.636;9.798;2023-01-01T04:00:18;7.33;;;5.03;;
2760;SDS011;15420;48.636;9.798;2023-01-01T04:05:36;7.00;;;4.97;;
2760;SDS011;15420;48.636;9.798;2023-01-01T04:08:04;9.03;;;4.90;;
2760;SDS011;15420;48.636;9.798;2023-01-01T04:10:34;7.83;;;5.03;;
2760;SDS011;15420;48.636;9.798;2023-01-01T04:13:05;6.60;;;5.03;;
2760;SDS011;15420;48.636;9.798;2023-01-01T04:15:32;7.50;;;4.57;;
2760;SDS011;15420;48.636;9.798;2023-01-01T04:18:00;7.40;;;5.20;;
2760;SDS011;15420;48.636;9.798;2023-01-01T04:20:26;8.60;;;5.63;;
2760;SDS011;15420;48.636;9.798;2023-01-01T04:22:56;6.97;;;4.83;;
2760;SDS011;15420;48.636;9.798;2023-01-01T04:25:23;5.67;;;4.37;;
2760;SDS011;15420;48.636;9.798;2023-01-01T04:27:52;6.87;;;4.80;;
2760;SDS011;15420;48.636;9.798;2023-01-01T04:30:22;8.33;;;5.30;;
2760;SDS011;15420;48.636;9.798;2023-01-01T04:32:48;6.00;;;4.20;;
2760;SDS011;15420;48.636;9.798;2023-01-01T04:35:18;7.10;;;4.73;;
2760;SDS011;15420;48.636;9.798;2023-01-01T04:37:45;6.37;;;4.07;;
2760;SDS011;15420;48.636;9.798;2023-01-01T04:40:11;6.03;;;4.60;;
2760;SDS011;15420;48.636;9.798;2023-01-01T04:42:38;7.67;;;5.07;;
2760;SDS011;15420;48.636;9.798;2023-01-01T04:45:10;7.00;;;5.00;;
2760;SDS011;15420;48.636;9.798;2023-01-01T04:47:38;6.80;;;5.10;;
2760;SDS011;15420;48.636;9.798;2023-01-01T04:50:05;5.27;;;3.93;;
2760;SDS011;15420;48.636;9.798;2023-01-01T04:52:34;5.40;;;3.97;;
2760;SDS011;15420;48.636;9.798;2023-01-01T04:55:00;5.17;;;4.37;;
2760;SDS011;15420;48.636;9.798;2023-01-01T04:57:28;7.57;;;4.87;;
2760;SDS011;15420;48.636;9.798;2023-01-01T04:59:54;6.10;;;4.50;;
2760;SDS011;15420;48.636;9.798;2023-01-01T05:02:21;7.10;;;3.90;;
2760;SDS011;15420;48.636;9.798;2023-01-01T05:04:49;7.73;;;4.30;;
2760;SDS011;15420;48.636;9.798;2023-01-01T05:07:15;4.80;;;3.90;;
2760;SDS011;15420;48.636;9.798;2023-01-01T05:09:41;3.93;;;3.13;;
2760;SDS011;15420;48.636;9.798;2023-01-01T05:12:08;7.90;;;4.70;;
2760;SDS011;15420;48.636;9.798;2023-01-01T05:14:36;7.00;;;4.20;;
2760;SDS011;15420;48.636;9.798;2023-01-01T05:17:02;5.13;;;4.20;;
2760;SDS011;15420;48.636;9.798;2023-01-01T05:19:28;8.80;;;4.00;;
2760;SDS011;15420;48.636;9.798;2023-01-01T05:21:57;7.70;;;4.47;;
2760;SDS011;15420;48.636;9.798;2023-01-01T05:24:23;7.67;;;4.30;;
2760;SDS011;15420;48.636;9.798;2023-01-01T05:26:49;4.50;;;3.77;;
2760;SDS011;15420;48.636;9.798;2023-01-01T05:29:15;6.90;;;4.60;;
2760;SDS011;15420;48.636;9.798;2023-01-01T05:31:50;5.50;;;4.23;;
2760;SDS011;15420;48.636;9.798;2023-01-01T05:34:19;8.13;;;4.40;;
2760;SDS011;15420;48.636;9.798;2023-01-01T05:36:45;5.57;;;4.07;;
2760;SDS011;15420;48.636;9.798;2023-01-01T05:39:14;5.20;;;3.80;;
2760;SDS011;15420;48.636;9.798;2023-01-01T05:41:40;6.70;;;4.70;;
2760;SDS011;15420;48.636;9.798;2023-01-01T05:44:09;8.53;;;4.50;;
2760;SDS011;15420;48.636;9.798;2023-01-01T05:46:35;7.47;;;5.60;;
2760;SDS011;15420;48.636;9.798;2023-01-01T05:49:02;8.83;;;4.57;;
2760;SDS011;15420;48.636;9.798;2023-01-01T05:51:28;7.97;;;5.30;;
2760;SDS011;15420;48.636;9.798;2023-01-01T05:53:55;10.23;;;5.47;;
2760;SDS011;15420;48.636;9.798;2023-01-01T05:56:22;9.60;;;5.33;;
2760;SDS011;15420;48.636;9.798;2023-01-01T05:58:53;10.90;;;5.57;;
2760;SDS011;15420;48.636;9.798;2023-01-01T06:01:23;8.57;;;5.50;;
2760;SDS011;15420;48.636;9.798;2023-01-01T06:03:51;5.53;;;4.23;;
2760;SDS011;15420;48.636;9.798;2023-01-01T06:06:22;6.63;;;4.20;;
2760;SDS011;15420;48.636;9.798;2023-01-01T06:08:56;9.10;;;5.20;;
2760;SDS011;15420;48.636;9.798;2023-01-01T06:11:27;9.80;;;6.50;;
2760;SDS011;15420;48.636;9.798;2023-01-01T06:13:57;7.50;;;5.63;;
2760;SDS011;15420;48.636;9.798;2023-01-01T06:16:25;8.80;;;5.37;;
2760;SDS011;15420;48.636;9.798;2023-01-01T06:18:52;4.93;;;4.00;;
2760;SDS011;15420;48.636;9.798;2023-01-01T06:21:20;8.00;;;4.40;;
2760;SDS011;15420;48.636;9.798;2023-01-01T06:23:53;7.10;;;4.53;;
2760;SDS011;15420;48.636;9.798;2023-01-01T06:26:26;9.50;;;5.47;;
2760;SDS011;15420;48.636;9.798;2023-01-01T06:28:54;9.17;;;6.10;;
2760;SDS011;15420;48.636;9.798;2023-01-01T06:31:22;7.87;;;6.03;;
2760;SDS011;15420;48.636;9.798;2023-01-01T06:33:50;9.33;;;6.70;;
2760;SDS011;15420;48.636;9.798;2023-01-01T06:36:17;10.10;;;7.50;;
2760;SDS011;15420;48.636;9.798;2023-01-01T06:38:46;12.57;;;7.30;;
2760;SDS011;15420;48.636;9.798;2023-01-01T06:41:16;10.70;;;5.80;;
2760;SDS011;15420;48.636;9.798;2023-01-01T06:43:46;9.20;;;6.10;;
2760;SDS011;15420;48.636;9.798;2023-01-01T06:46:16;11.17;;;6.60;;
2760;SDS011;15420;48.636;9.798;2023-01-01T06:48:42;12.77;;;6.23;;
2760;SDS011;15420;48.636;9.798;2023-01-01T06:51:15;8.90;;;6.27;;
2760;SDS011;15420;48.636;9.798;2023-01-01T06:53:43;9.70;;;5.73;;
2760;SDS011;15420;48.636;9.798;2023-01-01T06:56:10;11.67;;;7.30;;
2760;SDS011;15420;48.636;9.798;2023-01-01T06:58:37;9.40;;;6.40;;
2760;SDS011;15420;48.636;9.798;2023-01-01T07:03:31;17.10;;;7.53;;
2760;SDS011;15420;48.636;9.798;2023-01-01T07:05:57;9.20;;;6.07;;
2760;SDS011;15420;48.636;9.798;2023-01-01T07:08:23;9.97;;;5.50;;
2760;SDS011;15420;48.636;9.798;2023-01-01T07:10:52;10.93;;;6.73;;
2760;SDS011;15420;48.636;9.798;2023-01-01T07:13:24;8.37;;;5.97;;
2760;SDS011;15420;48.636;9.798;2023-01-01T07:15:52;12.83;;;6.57;;
2760;SDS011;15420;48.636;9.798;2023-01-01T07:18:19;13.00;;;7.20;;
2760;SDS011;15420;48.636;9.798;2023-01-01T07:20:50;9.50;;;5.03;;
2760;SDS011;15420;48.636;9.798;2023-01-01T07:23:22;8.73;;;5.67;;
2760;SDS011;15420;48.636;9.798;2023-01-01T07:25:53;10.57;;;5.43;;
2760;SDS011;15420;48.636;9.798;2023-01-01T07:28:20;10.47;;;6.50;;
2760;SDS011;15420;48.636;9.798;2023-01-01T07:30:49;7.60;;;5.90;;
2760;SDS011;15420;48.636;9.798;2023-01-01T07:33:21;7.70;;;5.17;;
2760;SDS011;15420;48.636;9.798;2023-01-01T07:35:49;9.07;;;5.80;;
2760;SDS011;15420;48.636;9.798;2023-01-01T07:38:16;8.10;;;5.47;;
2760;SDS011;15420;48.636;9.798;2023-01-01T07:40:45;7.30;;;5.20;;
2760;SDS011;15420;48.636;9.798;2023-01-01T07:43:14;10.83;;;6.27;;
2760;SDS011;15420;48.636;9.798;2023-01-01T07:45:40;6.30;;;4.20;;
2760;SDS011;15420;48.636;9.798;2023-01-01T07:48:08;7.80;;;5.80;;
2760;SDS011;15420;48.636;9.798;2023-01-01T07:50:38;8.10;;;5.67;;
2760;SDS011;15420;48.636;9.798;2023-01-01T07:53:07;8.40;;;5.10;;
2760;SDS011;15420;48.636;9.798;2023-01-01T07:55:36;7.37;;;4.67;;
2760;SDS011;15420;48.636;9.798;2023-01-01T07:58:02;8.47;;;4.80;;
2760;SDS011;15420;48.636;9.798;2023-01-01T08:00:31;9.70;;;5.23;;
2760;SDS011;15420;48.636;9.798;2023-01-01T08:02:58;9.53;;;5.60;;
2760;SDS011;15420;48.636;9.798;2023-01-01T08:05:24;8.97;;;6.00;;
2760;SDS011;15420;48.636;9.798;2023-01-01T08:07:53;7.27;;;5.33;;
2760;SDS011;15420;48.636;9.798;2023-01-01T08:10:20;9.07;;;5.80;;
2760;SDS011;15420;48.636;9.798;2023-01-01T08:12:49;7.53;;;4.63;;
2760;SDS011;15420;48.636;9.798;2023-01-01T08:15:15;6.87;;;4.53;;
2760;SDS011;15420;48.636;9.798;2023-01-01T08:17:41;7.40;;;5.60;;
2760;SDS011;15420;48.636;9.798;2023-01-01T08:20:13;8.23;;;4.40;;
2760;SDS011;15420;48.636;9.798;2023-01-01T08:22:42;6.20;;;5.40;;
2760;SDS011;15420;48.636;9.798;2023-01-01T08:25:08;8.00;;;5.63;;
2760;SDS011;15420;48.636;9.798;2023-01-01T08:27:34;6.60;;;4.67;;
2760;SDS011;15420;48.636;9.798;2023-01-01T08:30:03;6.30;;;4.70;;
2760;SDS011;15420;48.636;9.798;2023-01-01T08:32:31;8.50;;;5.80;;
2760;SDS011;15420;48.636;9.798;2023-01-01T08:34:59;8.70;;;5.30;;
2760;SDS011;15420;48.636;9.798;2023-01-01T08:37:26;8.57;;;5.53;;
2760;SDS011;15420;48.636;9.798;2023-01-01T08:39:52;7.30;;;5.17;;
2760;SDS011;15420;48.636;9.798;2023-01-01T08:42:20;7.03;;;5.37;;
2760;SDS011;15420;48.636;9.798;2023-01-01T08:44:47;6.70;;;5.33;;
2760;SDS011;15420;48.636;9.798;2023-01-01T08:47:22;7.20;;;4.80;;
2760;SDS011;15420;48.636;9.798;2023-01-01T08:49:50;9.97;;;6.20;;
2760;SDS011;15420;48.636;9.798;2023-01-01T08:52:19;8.27;;;5.10;;
2760;SDS011;15420;48.636;9.798;2023-01-01T08:54:51;7.77;;;5.10;;
2760;SDS011;15420;48.636;9.798;2023-01-01T08:57:17;6.63;;;4.70;;
2760;SDS011;15420;48.636;9.798;2023-01-01T08:59:43;8.70;;;5.33;;
2760;SDS011;15420;48.636;9.798;2023-01-01T09:02:11;8.07;;;5.00;;
2760;SDS011;15420;48.636;9.798;2023-01-01T09:04:40;7.20;;;5.20;;
2760;SDS011;15420;48.636;9.798;2023-01-01T09:07:06;7.77;;;5.63;;
2760;SDS011;15420;48.636;9.798;2023-01-01T09:09:34;8.43;;;5.03;;
2760;SDS011;15420;48.636;9.798;2023-01-01T09:12:00;8.47;;;4.90;;
2760;SDS011;15420;48.636;9.798;2023-01-01T09:14:33;8.77;;;4.93;;
2760;SDS011;15420;48.636;9.798;2023-01-01T09:16:59;4.70;;;4.20;;
2760;SDS011;15420;48.636;9.798;2023-01-01T09:19:26;6.60;;;4.30;;
2760;SDS011;15420;48.636;9.798;2023-01-01T09:21:57;9.67;;;5.23;;
2760;SDS011;15420;48.636;9.798;2023-01-01T09:24:23;7.20;;;5.97;;
2760;SDS011;15420;48.636;9.798;2023-01-01T09:26:52;6.30;;;5.57;;
2760;SDS011;15420;48.636;9.798;2023-01-01T09:29:20;6.03;;;5.13;;
2760;SDS011;15420;48.636;9.798;2023-01-01T09:31:49;8.63;;;5.43;;
2760;SDS011;15420;48.636;9.798;2023-01-01T09:34:18;6.23;;;5.03;;
2760;SDS011;15420;48.636;9.798;2023-01-01T09:36:44;7.97;;;5.83;;
2760;SDS011;15420;48.636;9.798;2023-01-01T09:39:13;6.20;;;5.60;;
2760;SDS011;15420;48.636;9.798;2023-01-01T09:47:19;5.50;;;4.60;;
2760;SDS011;15420;48.636;9.798;2023-01-01T09:49:55;7.53;;;5.60;;
2760;SDS011;15420;48.636;9.798;2023-01-01T09:52:34;7.33;;;4.70;;
2760;SDS011;15420;48.636;9.798;2023-01-01T09:55:29;6.83;;;4.47;;
2760;SDS011;15420;48.636;9.798;2023-01-01T09:58:14;6.00;;;4.37;;
2760;SDS011;15420;48.636;9.798;2023-01-01T10:00:45;4.67;;;4.10;;
2760;SDS011;15420;48.636;9.798;2023-01-01T10:03:19;5.37;;;4.43;;
2760;SDS011;15420;48.636;9.798;2023-01-01T10:14:38;7.30;;;4.50;;
2760;SDS011;15420;48.636;9.798;2023-01-01T10:17:11;6.80;;;4.90;;
2760;SDS011;15420;48.636;9.798;2023-01-01T10:19:51;6.23;;;5.10;;
2760;SDS011;15420;48.636;9.798;2023-01-01T10:22:28;7.57;;;5.10;;
2760;SDS011;15420;48.636;9.798;2023-01-01T10:27:38;9.97;;;6.20;;
2760;SDS011;15420;48.636;9.798;2023-01-01T10:30:18;7.07;;;6.07;;
2760;SDS011;15420;48.636;9.798;2023-01-01T10:32:47;7.43;;;6.00;;
2760;SDS011;15420;48.636;9.798;2023-01-01T10:35:18;9.40;;;6.33;;
2760;SDS011;15420;48.636;9.798;2023-01-01T10:37:55;7.83;;;6.17;;
2760;SDS011;15420;48.636;9.798;2023-01-01T10:40:27;8.97;;;6.63;;
2760;SDS011;15420;48.636;9.798;2023-01-01T10:42:59;8.73;;;6.30;;
2760;SDS011;15420;48.636;9.798;2023-01-01T10:45:29;8.57;;;7.03;;
2760;SDS011;15420;48.636;9.798;2023-01-01T10:48:10;6.30;;;5.47;;
2760;SDS011;15420;48.636;9.798;2023-01-01T10:50:40;8.83;;;6.20;;
2760;SDS011;15420;48.636;9.798;2023-01-01T10:53:18;9.20;;;5.87;;
2760;SDS011;15420;48.636;9.798;2023-01-01T10:55:59;10.60;;;5.20;;
2760;SDS011;15420;48.636;9.798;2023-01-01T10:58:30;6.23;;;4.10;;
2760;SDS011;15420;48.636;9.798;2023-01-01T11:01:11;4.50;;;4.07;;
2760;SDS011;15420;48.636;9.798;2023-01-01T11:04:29;3.90;;;3.33;;
2760;SDS011;15420;48.636;9.798;2023-01-01T11:06:44;5.43;;;3.07;;
2760;SDS011;15420;48.636;9.798;2023-01-01T11:09:29;4.73;;;3.37;;
2760;SDS011;15420;48.636;9.798;2023-01-01T11:14:38;4.90;;;3.03;;
2760;SDS011;15420;48.636;9.798;2023-01-01T11:17:19;3.90;;;2.80;;
2760;SDS011;15420;48.636;9.798;2023-01-01T11:19:52;4.40;;;3.07;;
2760;SDS011;15420;48.636;9.798;2023-01-01T11:25:14;4.20;;;3.23;;
2760;SDS011;15420;48.636;9.798;2023-01-01T11:27:46;4.17;;;3.23;;
2760;SDS011;15420;48.636;9.798;2023-01-01T11:30:23;5.73;;;3.47;;
2760;SDS011;15420;48.636;9.798;2023-01-01T11:33:02;3.57;;;3.27;;
2760;SDS011;15420;48.636;9.798;2023-01-01T11:35:30;3.90;;;2.90;;
2760;SDS011;15420;48.636;9.798;2023-01-01T11:38:00;6.30;;;2.90;;
2760;SDS011;15420;48.636;9.798;2023-01-01T11:40:31;3.57;;;2.80;;
2760;SDS011;15420;48.636;9.798;2023-01-01T11:43:03;3.20;;;2.90;;
2760;SDS011;15420;48.636;9.798;2023-01-01T11:45:32;2.77;;;2.40;;
2760;SDS011;15420;48.636;9.798;2023-01-01T11:48:11;4.80;;;2.17;;
2760;SDS011;15420;48.636;9.798;2023-01-01T11:53:31;5.07;;;2.50;;
2760;SDS011;15420;48.636;9.798;2023-01-01T12:01:18;4.53;;;3.50;;
2760;SDS011;15420;48.636;9.798;2023-01-01T12:03:53;3.47;;;3.03;;
2760;SDS011;15420;48.636;9.798;2023-01-01T12:12:09;5.40;;;3.77;;
2760;SDS011;15420;48.636;9.798;2023-01-01T12:22:55;3.70;;;2.67;;
2760;SDS011;15420;48.636;9.798;2023-01-01T12:25:24;4.17;;;2.70;;
2760;SDS011;15420;48.636;9.798;2023-01-01T12:28:02;5.13;;;3.00;;
2760;SDS011;15420;48.636;9.798;2023-01-01T12:41:54;7.20;;;4.23;;
2760;SDS011;15420;48.636;9.798;2023-01-01T12:53:15;4.17;;;2.50;;
2760;SDS011;15420;48.636;9.798;2023-01-01T12:56:02;7.37;;;2.70;;
2760;SDS011;15420;48.636;9.798;2023-01-01T12:58:47;4.07;;;3.27;;
2760;SDS011;15420;48.636;9.798;2023-01-01T13:01:27;7.50;;;3.13;;
2760;SDS011;15420;48.636;9.798;2023-01-01T13:04:00;3.20;;;2.90;;
2760;SDS011;15420;48.636;9.798;2023-01-01T13:06:40;4.07;;;2.50;;
2760;SDS011;15420;48.636;9.798;2023-01-01T13:09:27;3.67;;;2.40;;
2760;SDS011;15420;48.636;9.798;2023-01-01T13:14:40;9.77;;;5.07;;
2760;SDS011;15420;48.636;9.798;2023-01-01T13:17:24;8.53;;;4.23;;
2760;SDS011;15420;48.636;9.798;2023-01-01T13:19:58;8.17;;;4.10;;
2760;SDS011;15420;48.636;9.798;2023-01-01T13:22:41;4.23;;;3.40;;
2760;SDS011;15420;48.636;9.798;2023-01-01T13:44:21;4.07;;;2.60;;
2760;SDS011;15420;48.636;9.798;2023-01-01T14:00:36;2.73;;;2.00;;
2760;SDS011;15420;48.636;9.798;2023-01-01T14:03:37;4.43;;;2.50;;
2760;SDS011;15420;48.636;9.798;2023-01-01T14:06:09;3.13;;;2.13;;
2760;SDS011;15420;48.636;9.798;2023-01-01T14:08:46;3.70;;;1.93;;
2760;SDS011;15420;48.636;9.798;2023-01-01T14:11:38;4.00;;;2.20;;
2760;SDS011;15420;48.636;9.798;2023-01-01T14:16:58;10.03;;;7.10;;
2760;SDS011;15420;48.636;9.798;2023-01-01T14:19:26;10.33;;;7.60;;
2760;SDS011;15420;48.636;9.798;2023-01-01T14:21:53;7.80;;;6.00;;
2760;SDS011;15420;48.636;9.798;2023-01-01T14:24:26;7.37;;;5.70;;
2760;SDS011;15420;48.636;9.798;2023-01-01T14:26:52;5.53;;;5.03;;
2760;SDS011;15420;48.636;9.798;2023-01-01T14:29:27;6.27;;;5.67;;
2760;SDS011;15420;48.636;9.798;2023-01-01T14:32:20;9.60;;;8.80;;
2760;SDS011;15420;48.636;9.798;2023-01-01T14:35:00;8.90;;;6.30;;
2760;SDS011;15420;48.636;9.798;2023-01-01T14:37:29;4.47;;;4.07;;
2760;SDS011;15420;48.636;9.798;2023-01-01T14:40:19;4.17;;;3.50;;
2760;SDS011;15420;48.636;9.798;2023-01-01T14:43:00;4.07;;;3.13;;
2760;SDS011;15420;48.636;9.798;2023-01-01T14:45:32;7.60;;;3.17;;
2760;SDS011;15420;48.636;9.798;2023-01-01T14:48:10;4.87;;;3.77;;
2760;SDS011;15420;48.636;9.798;2023-01-01T14:50:51;11.83;;;6.40;;
2760;SDS011;15420;48.636;9.798;2023-01-01T14:53:19;7.80;;;5.33;;
2760;SDS011;15420;48.636;9.798;2023-01-01T14:55:56;8.03;;;4.90;;
2760;SDS011;15420;48.636;9.798;2023-01-01T14:58:23;5.30;;;4.80;;
2760;SDS011;15420;48.636;9.798;2023-01-01T15:01:11;4.77;;;4.37;;
2760;SDS011;15420;48.636;9.798;2023-01-01T15:03:56;3.73;;;3.43;;
2760;SDS011;15420;48.636;9.798;2023-01-01T15:06:29;2.57;;;2.10;;
2760;SDS011;15420;48.636;9.798;2023-01-01T15:08:56;4.53;;;4.13;;
2760;SDS011;15420;48.636;9.798;2023-01-01T15:11:23;4.90;;;3.30;;
2760;SDS011;15420;48.636;9.798;2023-01-01T15:16:25;3.03;;;2.77;;
2760;SDS011;15420;48.636;9.798;2023-01-01T15:18:57;3.37;;;2.30;;
2760;SDS011;15420;48.636;9.798;2023-01-01T15:21:42;2.90;;;2.70;;
2760;SDS011;15420;48.636;9.798;2023-01-01T15:26:44;2.90;;;2.30;;
2760;SDS011;15420;48.636;9.798;2023-01-01T15:29:25;3.00;;;2.30;;
2760;SDS011;15420;48.636;9.798;2023-01-01T15:32:01;4.07;;;2.57;;
2760;SDS011;15420;48.636;9.798;2023-01-01T15:35:17;4.20;;;2.67;;
2760;SDS011;15420;48.636;9.798;2023-01-01T15:37:46;4.13;;;3.70;;
2760;SDS011;15420;48.636;9.798;2023-01-01T15:50:38;97.37;;;48.80;;
2760;SDS011;15420;48.636;9.798;2023-01-01T15:58:38;26.23;;;20.30;;
2760;SDS011;15420;48.636;9.798;2023-01-01T16:01:13;16.83;;;15.13;;
2760;SDS011;15420;48.636;9.798;2023-01-01T16:03:53;9.60;;;8.70;;
2760;SDS011;15420;48.636;9.798;2023-01-01T16:06:53;27.73;;;19.83;;
2760;SDS011;15420;48.636;9.798;2023-01-01T16:09:21;26.63;;;23.07;;
2760;SDS011;15420;48.636;9.798;2023-01-01T16:11:53;21.17;;;13.90;;
2760;SDS011;15420;48.636;9.798;2023-01-01T16:14:21;9.30;;;7.60;;
2760;SDS011;15420;48.636;9.798;2023-01-01T16:16:49;8.10;;;5.03;;
2760;SDS011;15420;48.636;9.798;2023-01-01T16:19:21;23.23;;;12.97;;
2760;SDS011;15420;48.636;9.798;2023-01-01T16:21:50;35.53;;;24.60;;
2760;SDS011;15420;48.636;9.798;2023-01-01T16:24:17;42.00;;;33.53;;
2760;SDS011;15420;48.636;9.798;2023-01-01T16:26:46;28.80;;;22.70;;
2760;SDS011;15420;48.636;9.798;2023-01-01T16:29:16;17.87;;;12.77;;
2760;SDS011;15420;48.636;9.798;2023-01-01T16:31:45;14.90;;;9.17;;
2760;SDS011;15420;48.636;9.798;2023-01-01T16:34:12;12.10;;;8.20;;
2760;SDS011;15420;48.636;9.798;2023-01-01T16:36:39;12.40;;;8.10;;
2760;SDS011;15420;48.636;9.798;2023-01-01T16:39:12;17.50;;;11.00;;
2760;SDS011;15420;48.636;9.798;2023-01-01T16:41:45;16.77;;;13.30;;
2760;SDS011;15420;48.636;9.798;2023-01-01T16:44:14;26.80;;;18.50;;
2760;SDS011;15420;48.636;9.798;2023-01-01T16:46:40;24.90;;;18.37;;
2760;SDS011;15420;48.636;9.798;2023-01-01T16:49:12;30.07;;;22.37;;
2760;SDS011;15420;48.636;9.798;2023-01-01T16:51:46;38.43;;;27.50;;
2760;SDS011;15420;48.636;9.798;2023-01-01T16:54:12;37.93;;;27.23;;
2760;SDS011;15420;48.636;9.798;2023-01-01T16:56:38;34.73;;;22.23;;
2760;SDS011;15420;48.636;9.798;2023-01-01T16:59:04;33.20;;;23.03;;
2760;SDS011;15420;48.636;9.798;2023-01-01T17:01:41;36.70;;;28.50;;
2760;SDS011;15420;48.636;9.798;2023-01-01T17:04:10;58.50;;;40.47;;
2760;SDS011;15420;48.636;9.798;2023-01-01T17:06:41;37.60;;;28.17;;
2760;SDS011;15420;48.636;9.798;2023-01-01T17:09:09;30.50;;;22.40;;
2760;SDS011;15420;48.636;9.798;2023-01-01T17:11:37;60.20;;;32.40;;
2760;SDS011;15420;48.636;9.798;2023-01-01T17:14:04;43.80;;;25.93;;
2760;SDS011;15420;48.636;9.798;2023-01-01T17:16:33;41.73;;;25.60;;
2760;SDS011;15420;48.636;9.798;2023-01-01T17:19:01;31.50;;;19.70;;
2760;SDS011;15420;48.636;9.798;2023-01-01T17:21:29;44.80;;;25.50;;
2760;SDS011;15420;48.636;9.798;2023-01-01T17:23:57;94.17;;;50.97;;
2760;SDS011;15420;48.636;9.798;2023-01-01T17:26:25;37.40;;;24.40;;
2760;SDS011;15420;48.636;9.798;2023-01-01T17:28:51;33.87;;;30.27;;
2760;SDS011;15420;48.636;9.798;2023-01-01T17:31:22;27.83;;;17.03;;
2760;SDS011;15420;48.636;9.798;2023-01-01T17:33:50;25.47;;;17.00;;
2760;SDS011;15420;48.636;9.798;2023-01-01T17:36:18;23.63;;;17.07;;
2760;SDS011;15420;48.636;9.798;2023-01-01T17:38:45;19.87;;;10.20;;
2760;SDS011;15420;48.636;9.798;2023-01-01T17:41:12;10.03;;;7.10;;
2760;SDS011;15420;48.636;9.798;2023-01-01T17:43:54;9.97;;;6.30;;
2760;SDS011;15420;48.636;9.798;2023-01-01T17:46:26;9.80;;;5.77;;
2760;SDS011;15420;48.636;9.798;2023-01-01T17:48:59;16.57;;;11.23;;
2760;SDS011;15420;48.636;9.798;2023-01-01T17:51:27;13.33;;;8.50;;
2760;SDS011;15420;48.636;9.798;2023-01-01T17:53:56;6.17;;;5.07;;
2760;SDS011;15420;48.636;9.798;2023-01-01T17:56:22;6.00;;;3.90;;
2760;SDS011;15420;48.636;9.798;2023-01-01T17:58:50;10.30;;;5.63;;
2760;SDS011;15420;48.636;9.798;2023-01-01T18:03:56;16.50;;;8.90;;
2760;SDS011;15420;48.636;9.798;2023-01-01T18:06:23;14.67;;;8.73;;
2760;SDS011;15420;48.636;9.798;2023-01-01T18:08:55;20.60;;;9.43;;